createdAt,value
2018-07-06T00:00:50.120Z,70.22
2018-07-06T00:01:50.298Z,70.32
2018-07-06T00:02:50.484Z,70.32
2018-07-06T00:03:50.664Z,70.13
2018-07-06T00:04:50.851Z,70.61
2018-07-06T00:05:51.041Z,70.61
2018-07-06T00:06:51.222Z,70.51
2018-07-06T00:07:51.390Z,70.70
2018-07-06T00:08:51.584Z,70.51
2018-07-06T00:09:51.756Z,70.32
2018-07-06T00:11:52.132Z,70.38
2018-07-06T00:12:52.315Z,70.19
2018-07-06T00:13:52.498Z,70.67
2018-07-06T00:14:52.689Z,70.61
2018-07-06T00:15:52.878Z,70.13
2018-07-06T00:16:53.047Z,69.93
2018-07-06T00:17:53.234Z,70.09
2018-07-06T00:18:53.411Z,70.00
2018-07-06T00:19:53.600Z,71.73
2018-07-06T00:20:53.817Z,71.54
2018-07-06T00:21:53.971Z,71.60
2018-07-06T00:22:54.139Z,71.70
2018-07-06T00:23:54.321Z,71.54
2018-07-06T00:24:54.507Z,70.67
2018-07-06T00:25:54.690Z,70.48
2018-07-06T00:26:54.866Z,70.00
2018-07-06T00:27:55.049Z,70.09
2018-07-06T00:28:55.226Z,70.09
2018-07-06T00:29:55.417Z,70.00
2018-07-06T00:30:55.596Z,70.19
2018-07-06T00:31:55.784Z,70.57
2018-07-06T00:32:55.959Z,70.48
2018-07-06T00:33:56.140Z,70.09
2018-07-06T00:34:56.607Z,70.28
2018-07-06T00:35:56.508Z,70.25
2018-07-06T00:36:56.694Z,70.19
2018-07-06T00:37:56.887Z,70.15
2018-07-06T00:38:57.077Z,70.57
2018-07-06T00:39:57.283Z,70.19
2018-07-06T00:40:57.450Z,70.57
2018-07-06T00:41:57.910Z,70.00
2018-07-06T00:42:57.817Z,70.09
2018-07-06T00:43:57.996Z,69.80
2018-07-06T00:45:58.365Z,70.57
2018-07-06T00:46:58.553Z,70.09
2018-07-06T00:47:58.730Z,70.48
2018-07-06T00:48:58.906Z,70.44
2018-07-06T00:49:59.083Z,69.80
2018-07-06T00:50:59.272Z,69.90
2018-07-06T00:51:59.477Z,70.09
2018-07-06T00:52:59.655Z,70.00
2018-07-06T00:53:59.839Z,70.44
2018-07-06T00:55:00.021Z,70.19
2018-07-06T00:56:00.202Z,70.15
2018-07-06T00:57:00.375Z,70.54
2018-07-06T00:58:00.570Z,70.28
2018-07-06T00:59:00.745Z,70.54
2018-07-06T01:00:00.927Z,70.83
2018-07-06T01:01:01.115Z,70.83
2018-07-06T01:02:01.299Z,70.64
2018-07-06T01:03:01.489Z,70.67
2018-07-06T01:04:01.673Z,70.76
2018-07-06T01:05:01.851Z,71.12
2018-07-06T01:06:02.046Z,70.83
2018-07-06T01:07:02.235Z,70.73
2018-07-06T01:08:02.428Z,70.64
2018-07-06T01:09:02.598Z,70.83
2018-07-06T01:10:02.816Z,71.31
2018-07-06T01:11:02.982Z,70.54
2018-07-06T01:12:03.156Z,71.60
2018-07-06T01:13:03.344Z,70.92
2018-07-06T01:14:03.526Z,71.31
2018-07-06T01:15:03.721Z,70.54
2018-07-06T01:17:04.088Z,71.12
2018-07-06T01:18:04.265Z,71.22
2018-07-06T01:19:04.429Z,70.54
2018-07-06T01:20:04.617Z,70.64
2018-07-06T01:21:04.810Z,71.22
2018-07-06T01:22:04.986Z,71.31
2018-07-06T01:23:05.215Z,71.60
2018-07-06T01:24:05.366Z,72.18
2018-07-06T01:25:05.543Z,72.56
2018-07-06T01:26:05.723Z,72.37
2018-07-06T01:27:05.907Z,72.27
2018-07-06T01:28:06.081Z,72.24
2018-07-06T01:29:06.265Z,72.43
2018-07-06T01:30:06.448Z,72.43
2018-07-06T01:31:06.632Z,72.14
2018-07-06T01:32:06.813Z,72.43
2018-07-06T01:33:06.991Z,72.81
2018-07-06T01:34:07.178Z,72.72
2018-07-06T01:35:07.375Z,72.53
2018-07-06T01:36:07.541Z,72.63
2018-07-06T01:37:07.725Z,73.10
2018-07-06T01:38:07.908Z,72.91
2018-07-06T01:39:08.095Z,72.91
2018-07-06T01:40:08.275Z,72.81
2018-07-06T01:41:08.464Z,72.91
2018-07-06T01:42:08.649Z,72.72
2018-07-06T01:43:08.827Z,72.72
2018-07-06T01:44:09.011Z,72.88
2018-07-06T01:45:09.197Z,72.91
2018-07-06T01:46:09.386Z,72.72
2018-07-06T01:47:09.856Z,73.55
2018-07-06T01:48:09.742Z,73.55
2018-07-06T01:49:09.931Z,74.13
2018-07-06T01:50:10.111Z,73.74
2018-07-06T01:51:10.302Z,73.84
2018-07-06T01:52:10.491Z,74.22
2018-07-06T01:53:10.667Z,74.80
2018-07-06T01:54:10.848Z,74.38
2018-07-06T01:55:11.036Z,75.09
2018-07-06T01:56:11.212Z,75.05
2018-07-06T01:57:11.400Z,74.96
2018-07-06T01:58:11.584Z,75.15
2018-07-06T01:59:11.768Z,75.34
2018-07-06T02:00:11.952Z,75.05
2018-07-06T02:01:12.132Z,75.05
2018-07-06T02:02:12.317Z,75.24
2018-07-06T02:03:12.500Z,75.44
2018-07-06T02:04:12.679Z,75.63
2018-07-06T02:05:12.862Z,75.67
2018-07-06T02:06:13.047Z,75.54
2018-07-06T02:07:13.239Z,75.57
2018-07-06T02:08:13.419Z,75.54
2018-07-06T02:09:13.605Z,75.63
2018-07-06T02:10:13.788Z,76.01
2018-07-06T02:11:13.966Z,75.92
2018-07-06T02:12:14.160Z,75.92
2018-07-06T02:13:14.343Z,75.54
2018-07-06T02:14:14.527Z,76.11
2018-07-06T02:15:14.711Z,76.01
2018-07-06T02:16:14.910Z,76.21
2018-07-06T02:17:15.081Z,76.31
2018-07-06T02:18:15.267Z,76.11
2018-07-06T02:19:15.446Z,75.73
2018-07-06T02:20:15.631Z,75.44
2018-07-06T02:21:15.814Z,76.11
2018-07-06T02:22:15.998Z,76.88
2018-07-06T02:23:16.182Z,76.65
2018-07-06T02:24:16.362Z,77.04
2018-07-06T02:25:16.551Z,77.23
2018-07-06T02:26:16.734Z,76.84
2018-07-06T02:27:16.922Z,76.65
2018-07-06T02:28:17.121Z,76.84
2018-07-06T02:29:17.284Z,76.75
2018-07-06T02:30:17.463Z,76.84
2018-07-06T02:31:17.648Z,77.33
2018-07-06T02:32:17.832Z,76.75
2018-07-06T02:33:18.016Z,77.13
2018-07-06T02:34:18.199Z,76.84
2018-07-06T02:35:18.382Z,77.90
2018-07-06T02:36:18.558Z,78.09
2018-07-06T02:37:18.741Z,78.77
2018-07-06T02:38:18.934Z,78.44
2018-07-06T02:39:19.117Z,78.92
2018-07-06T02:40:19.304Z,78.44
2018-07-06T02:41:19.482Z,78.92
2018-07-06T02:42:19.900Z,78.58
2018-07-06T02:43:19.851Z,78.53
2018-07-06T02:44:20.027Z,78.83
2018-07-06T02:45:20.212Z,78.73
2018-07-06T02:46:20.395Z,78.86
2018-07-06T02:47:20.576Z,79.11
2018-07-06T02:48:20.755Z,79.98
2018-07-06T02:49:20.936Z,80.46
2018-07-06T02:50:21.125Z,80.17
2018-07-06T02:51:21.301Z,80.17
2018-07-06T02:52:21.488Z,79.60
2018-07-06T02:53:21.673Z,80.27
2018-07-06T02:54:21.859Z,80.27
2018-07-06T02:55:22.036Z,80.07
2018-07-06T02:56:22.212Z,80.27
2018-07-06T02:57:22.428Z,80.75
2018-07-06T02:58:22.604Z,80.27
2018-07-06T02:59:22.783Z,80.75
2018-07-06T03:00:22.979Z,81.19
2018-07-06T03:01:23.168Z,80.99
2018-07-06T03:02:23.328Z,81.57
2018-07-06T03:03:23.524Z,81.86
2018-07-06T03:04:23.701Z,81.48
2018-07-06T03:05:23.886Z,81.67
2018-07-06T03:06:24.309Z,81.72
2018-07-06T03:07:24.253Z,81.38
2018-07-06T03:08:24.432Z,81.38
2018-07-06T03:09:24.618Z,80.99
2018-07-06T03:10:24.792Z,80.90
2018-07-06T03:11:24.968Z,80.96
2018-07-06T03:12:25.173Z,80.80
2018-07-06T03:13:25.339Z,80.51
2018-07-06T03:14:25.526Z,81.19
2018-07-06T03:15:25.705Z,81.09
2018-07-06T03:16:25.894Z,81.57
2018-07-06T03:17:26.079Z,81.38
2018-07-06T03:18:26.260Z,81.38
2018-07-06T03:19:26.454Z,81.76
2018-07-06T03:20:26.625Z,81.76
2018-07-06T03:21:26.809Z,81.67
2018-07-06T03:22:27.001Z,81.34
2018-07-06T03:23:27.184Z,81.63
2018-07-06T03:24:27.353Z,81.48
2018-07-06T03:25:27.535Z,81.43
2018-07-06T03:26:27.719Z,81.57
2018-07-06T03:27:27.900Z,82.15
2018-07-06T03:28:28.385Z,81.48
2018-07-06T03:29:28.264Z,81.67
2018-07-06T03:30:28.459Z,81.72
2018-07-06T03:31:28.640Z,82.20
2018-07-06T03:32:28.826Z,82.30
2018-07-06T03:33:29.000Z,81.63
2018-07-06T03:34:29.172Z,81.53
2018-07-06T03:35:29.357Z,81.34
2018-07-06T03:36:29.536Z,81.24
2018-07-06T03:37:29.719Z,81.43
2018-07-06T03:38:29.907Z,81.57
2018-07-06T03:39:30.090Z,80.99
2018-07-06T03:40:30.283Z,81.09
2018-07-06T03:41:30.461Z,80.99
2018-07-06T03:42:30.645Z,80.61
2018-07-06T03:43:30.829Z,79.94
2018-07-06T03:44:31.017Z,80.04
2018-07-06T03:45:31.185Z,80.04
2018-07-06T03:46:31.345Z,80.42
2018-07-06T03:47:31.529Z,80.13
2018-07-06T03:48:31.710Z,80.04
2018-07-06T03:49:31.892Z,79.84
2018-07-06T03:50:32.109Z,80.99
2018-07-06T03:51:32.252Z,80.04
2018-07-06T03:52:32.439Z,79.94
2018-07-06T03:53:32.617Z,80.80
2018-07-06T03:54:32.798Z,80.61
2018-07-06T03:55:32.983Z,81.05
2018-07-06T03:56:33.166Z,81.53
2018-07-06T03:57:33.355Z,82.10
2018-07-06T03:58:33.531Z,82.30
2018-07-06T03:59:33.716Z,81.92
2018-07-06T04:00:33.896Z,82.54
2018-07-06T04:01:34.077Z,82.93
2018-07-06T04:02:34.258Z,82.78
2018-07-06T04:03:34.445Z,82.45
2018-07-06T04:04:34.625Z,82.20
2018-07-06T04:05:34.805Z,82.59
2018-07-06T04:06:35.000Z,82.10
2018-07-06T04:07:35.174Z,81.92
2018-07-06T04:08:35.358Z,82.20
2018-07-06T04:09:35.530Z,81.34
2018-07-06T04:10:35.720Z,81.53
2018-07-06T04:11:35.902Z,82.40
2018-07-06T04:12:36.085Z,82.01
2018-07-06T04:13:36.266Z,81.43
2018-07-06T04:14:36.453Z,81.43
2018-07-06T04:15:36.631Z,81.72
2018-07-06T04:16:36.815Z,81.53
2018-07-06T04:17:36.999Z,81.53
2018-07-06T04:18:37.191Z,81.92
2018-07-06T04:19:37.362Z,81.43
2018-07-06T04:20:37.545Z,80.76
2018-07-06T04:21:37.742Z,80.32
2018-07-06T04:22:37.909Z,79.11
2018-07-06T04:23:38.092Z,76.84
2018-07-06T04:24:38.296Z,75.28
2018-07-06T04:25:38.460Z,72.63
2018-07-06T04:26:38.639Z,70.83
2018-07-06T04:27:38.823Z,68.68
2018-07-06T04:28:39.017Z,67.71
2018-07-06T04:29:39.195Z,66.75
2018-07-06T04:30:39.379Z,66.40
2018-07-06T04:31:39.562Z,65.91
2018-07-06T04:32:39.747Z,65.37
2018-07-06T04:33:39.986Z,63.63
2018-07-06T04:34:40.112Z,63.08
2018-07-06T04:35:40.300Z,61.37
2018-07-06T04:36:40.487Z,61.02
2018-07-06T04:37:40.666Z,60.95
2018-07-06T04:38:40.848Z,60.08
2018-07-06T04:39:41.036Z,59.31
2018-07-06T04:40:41.225Z,59.11
2018-07-06T04:41:41.413Z,58.47
2018-07-06T04:42:41.600Z,58.27
2018-07-06T04:43:41.788Z,58.82
2018-07-06T04:44:41.969Z,59.66
2018-07-06T04:45:42.171Z,60.05
2018-07-06T04:46:42.365Z,60.27
2018-07-06T04:47:42.540Z,59.05
2018-07-06T04:48:42.728Z,58.44
2018-07-06T04:49:42.906Z,59.38
2018-07-06T04:50:43.112Z,60.14
2018-07-06T04:51:43.295Z,60.57
2018-07-06T04:52:43.473Z,62.47
2018-07-06T04:53:43.653Z,62.40
2018-07-06T04:54:43.838Z,60.96
2018-07-06T04:55:44.030Z,59.76
2018-07-06T04:56:44.215Z,59.38
2018-07-06T04:57:44.393Z,58.89
2018-07-06T04:58:44.572Z,58.70
2018-07-06T04:59:44.754Z,59.83
2018-07-06T05:00:44.943Z,59.47
2018-07-06T05:01:45.143Z,59.53
2018-07-06T05:02:45.335Z,60.76
2018-07-06T05:03:45.515Z,59.95
2018-07-06T05:04:45.719Z,59.86
2018-07-06T05:05:45.893Z,60.96
2018-07-06T05:06:46.343Z,61.77
2018-07-06T05:07:46.389Z,64.08
2018-07-06T05:08:46.491Z,63.89
2018-07-06T05:09:46.675Z,64.53
2018-07-06T05:10:46.851Z,66.20
2018-07-06T05:11:47.063Z,67.46
2018-07-06T05:12:47.266Z,68.04
2018-07-06T05:13:47.459Z,68.87
2018-07-06T05:14:47.645Z,69.45
2018-07-06T05:15:47.845Z,69.25
2018-07-06T05:16:48.086Z,68.80
2018-07-06T05:17:48.195Z,68.23
2018-07-06T05:18:48.384Z,68.77
2018-07-06T05:19:48.557Z,69.99
2018-07-06T05:20:48.762Z,69.83
2018-07-06T05:21:48.948Z,69.06
2018-07-06T05:22:49.133Z,68.96
2018-07-06T05:23:49.333Z,68.61
2018-07-06T05:24:49.509Z,67.94
2018-07-06T05:25:49.720Z,68.23
2018-07-06T05:26:49.912Z,68.13
2018-07-06T05:27:50.103Z,67.74
2018-07-06T05:28:50.289Z,67.00
2018-07-06T05:29:50.491Z,66.14
2018-07-06T05:30:50.657Z,65.40
2018-07-06T05:31:50.849Z,64.92
2018-07-06T05:32:51.034Z,64.98
2018-07-06T05:33:51.221Z,65.85
2018-07-06T05:34:51.407Z,66.14
2018-07-06T05:35:51.598Z,66.01
2018-07-06T05:36:51.783Z,66.88
2018-07-06T05:37:52.042Z,66.62
2018-07-06T05:38:52.163Z,65.17
2018-07-06T05:39:52.348Z,63.89
2018-07-06T05:40:52.533Z,62.31
2018-07-06T05:41:52.717Z,60.69
2018-07-06T05:42:52.919Z,61.41
2018-07-06T05:43:53.282Z,60.57
2018-07-06T05:44:53.270Z,59.53
2018-07-06T05:45:53.450Z,59.83
2018-07-06T05:46:54.405Z,60.93
2018-07-06T05:47:53.812Z,61.22
2018-07-06T05:48:54.004Z,61.28
2018-07-06T05:49:54.183Z,62.47
2018-07-06T05:50:54.366Z,62.25
2018-07-06T05:51:54.546Z,61.31
2018-07-06T05:52:54.754Z,60.11
2018-07-06T05:53:54.915Z,58.72
2018-07-06T05:54:55.096Z,57.54
2018-07-06T05:55:55.282Z,57.46
2018-07-06T05:56:55.467Z,56.40
2018-07-06T05:57:55.665Z,56.88
2018-07-06T05:58:56.100Z,56.46
2018-07-06T05:59:56.033Z,55.00
2018-07-06T06:00:56.214Z,54.81
2018-07-06T06:01:56.393Z,53.29
2018-07-06T06:02:56.580Z,53.70
2018-07-06T06:03:56.774Z,52.54
2018-07-06T06:04:56.958Z,51.98
2018-07-06T06:05:57.159Z,51.50
2018-07-06T06:06:57.347Z,51.14
2018-07-06T06:07:57.536Z,50.46
2018-07-06T06:08:57.721Z,49.68
2018-07-06T06:09:57.917Z,49.77
2018-07-06T06:10:58.110Z,50.46
2018-07-06T06:11:58.300Z,49.32
2018-07-06T06:12:58.496Z,48.93
2018-07-06T06:13:58.699Z,48.10
2018-07-06T06:14:58.866Z,46.77
2018-07-06T06:15:59.069Z,46.64
2018-07-06T06:16:59.262Z,47.03
2018-07-06T06:17:59.454Z,47.03
2018-07-06T06:18:59.635Z,47.49
2018-07-06T06:19:59.835Z,49.63
2018-07-06T06:21:00.014Z,52.12
2018-07-06T06:22:00.200Z,51.28
2018-07-06T06:23:00.379Z,50.48
2018-07-06T06:24:00.574Z,51.62
2018-07-06T06:25:00.765Z,52.12
2018-07-06T06:26:00.956Z,52.58
2018-07-06T06:27:01.138Z,53.50
2018-07-06T06:28:01.350Z,55.77
2018-07-06T06:29:01.489Z,56.90
2018-07-06T06:30:01.680Z,58.42
2018-07-06T06:31:01.866Z,58.64
2018-07-06T06:32:02.046Z,59.02
2018-07-06T06:33:02.293Z,58.70
2018-07-06T06:34:02.436Z,58.51
2018-07-06T06:35:02.611Z,59.77
2018-07-06T06:36:02.801Z,58.64
2018-07-06T06:37:02.999Z,56.86
2018-07-06T06:38:03.201Z,57.54
2018-07-06T06:39:03.388Z,56.47
2018-07-06T06:40:03.571Z,54.88
2018-07-06T06:41:03.758Z,52.51
2018-07-06T06:42:03.943Z,52.39
2018-07-06T06:43:04.117Z,52.00
2018-07-06T06:44:04.305Z,51.37
2018-07-06T06:45:04.490Z,49.95
2018-07-06T06:46:04.685Z,50.67
2018-07-06T06:47:04.895Z,50.72
2018-07-06T06:48:05.077Z,48.93
2018-07-06T06:49:05.238Z,47.40
2018-07-06T06:50:05.448Z,47.49
2018-07-06T06:51:05.616Z,47.23
2018-07-06T06:52:05.802Z,46.67
2018-07-06T06:53:06.042Z,44.55
2018-07-06T06:54:06.177Z,43.91
2018-07-06T06:55:06.472Z,43.43
2018-07-06T06:56:06.622Z,41.52
2018-07-06T06:57:06.795Z,42.38
2018-07-06T06:58:07.008Z,42.84
2018-07-06T06:59:07.213Z,43.79
2018-07-06T07:00:07.356Z,43.77
2018-07-06T07:01:07.604Z,44.35
2018-07-06T07:02:07.774Z,44.06
2018-07-06T07:03:07.913Z,45.14
2018-07-06T07:04:08.142Z,45.57
2018-07-06T07:05:08.268Z,46.91
2018-07-06T07:06:08.455Z,45.62
2018-07-06T07:07:08.614Z,44.86
2018-07-06T07:08:08.808Z,44.53
2018-07-06T07:09:08.976Z,46.55
2018-07-06T07:10:09.142Z,46.74
2018-07-06T07:11:09.320Z,45.89
2018-07-06T07:12:09.490Z,44.30
2018-07-06T07:13:09.673Z,45.50
2018-07-06T07:14:09.889Z,47.11
2018-07-06T07:15:10.092Z,48.05
2018-07-06T07:16:10.248Z,48.44
2018-07-06T07:17:10.431Z,50.04
2018-07-06T07:18:10.601Z,50.07
2018-07-06T07:19:10.786Z,49.46
2018-07-06T07:20:10.958Z,50.89
2018-07-06T07:21:11.139Z,50.87
2018-07-06T07:22:11.354Z,51.09
2018-07-06T07:23:11.545Z,51.28
2018-07-06T07:24:11.796Z,50.89
2018-07-06T07:25:11.924Z,51.74
2018-07-06T07:26:12.129Z,51.96
2018-07-06T07:27:12.282Z,50.70
2018-07-06T07:28:12.454Z,50.07
2018-07-06T07:29:12.653Z,49.10
2018-07-06T07:30:12.921Z,50.34
2018-07-06T07:31:12.991Z,50.34
2018-07-06T07:32:13.178Z,49.29
2018-07-06T07:33:13.405Z,48.08
2018-07-06T07:34:13.503Z,48.42
2018-07-06T07:35:13.700Z,49.29
2018-07-06T07:36:13.893Z,49.68
2018-07-06T07:37:14.113Z,50.70
2018-07-06T07:38:14.252Z,50.34
2018-07-06T07:39:14.429Z,51.47
2018-07-06T07:40:14.633Z,52.12
2018-07-06T07:41:14.814Z,52.95
2018-07-06T07:42:15.007Z,53.81
2018-07-06T07:43:15.177Z,54.66
2018-07-06T07:44:15.327Z,54.59
2018-07-06T07:45:15.526Z,54.37
2018-07-06T07:46:15.709Z,54.47
2018-07-06T07:47:15.909Z,54.95
2018-07-06T07:48:16.061Z,55.15
2018-07-06T07:49:16.221Z,55.24
2018-07-06T07:50:16.400Z,55.43
2018-07-06T07:51:16.585Z,56.40
2018-07-06T07:52:16.752Z,55.92
2018-07-06T07:53:16.939Z,55.17
2018-07-06T07:54:17.123Z,53.45
2018-07-06T07:55:17.274Z,52.06
2018-07-06T07:56:17.448Z,49.58
2018-07-06T07:57:17.652Z,48.08
2018-07-06T07:58:17.805Z,46.74
2018-07-06T07:59:17.986Z,46.37
2018-07-06T08:00:18.204Z,44.94
2018-07-06T08:01:18.556Z,46.18
2018-07-06T08:02:18.546Z,46.89
2018-07-06T08:03:18.715Z,47.69
2018-07-06T08:04:18.891Z,46.96
2018-07-06T08:05:19.071Z,46.40
2018-07-06T08:06:19.237Z,45.50
2018-07-06T08:07:19.438Z,47.11
2018-07-06T08:08:19.664Z,48.15
2018-07-06T08:09:19.853Z,49.29
2018-07-06T08:10:20.092Z,48.93
2018-07-06T08:11:20.217Z,48.37
2018-07-06T08:12:20.425Z,48.90
2018-07-06T08:13:20.582Z,48.64
2018-07-06T08:14:20.787Z,49.10
2018-07-06T08:15:20.941Z,49.32
2018-07-06T08:16:21.138Z,47.98
2018-07-06T08:17:21.379Z,46.64
2018-07-06T08:18:21.625Z,45.60
2018-07-06T08:19:21.768Z,45.52
2018-07-06T08:20:21.967Z,45.50
2018-07-06T08:21:22.152Z,46.45
2018-07-06T08:22:22.323Z,46.74
2018-07-06T08:23:22.541Z,46.62
2018-07-06T08:24:22.726Z,46.84
2018-07-06T08:25:22.925Z,46.64
2018-07-06T08:26:23.093Z,46.55
2018-07-06T08:27:23.276Z,46.35
2018-07-06T08:28:23.471Z,46.55
2018-07-06T08:29:23.651Z,47.08
2018-07-06T08:30:23.866Z,47.08
2018-07-06T08:31:24.012Z,46.72
2018-07-06T08:32:24.208Z,46.45
2018-07-06T08:33:24.401Z,46.55
2018-07-06T08:34:24.567Z,45.57
2018-07-06T08:35:24.781Z,45.48
2018-07-06T08:36:24.938Z,45.60
2018-07-06T08:37:25.151Z,44.43
2018-07-06T08:38:25.302Z,44.45
2018-07-06T08:39:25.480Z,43.11
2018-07-06T08:40:25.664Z,42.91
2018-07-06T08:41:25.847Z,43.01
2018-07-06T08:42:26.028Z,43.29
2018-07-06T08:43:26.233Z,44.14
2018-07-06T08:44:26.412Z,44.53
2018-07-06T08:45:26.585Z,45.38
2018-07-06T08:46:26.775Z,45.67
2018-07-06T08:47:26.951Z,45.50
2018-07-06T08:48:27.152Z,44.55
2018-07-06T08:49:27.316Z,44.16
2018-07-06T08:50:27.500Z,44.35
2018-07-06T08:51:27.678Z,44.43
2018-07-06T08:52:27.876Z,45.97
2018-07-06T08:53:28.048Z,45.60
2018-07-06T08:54:28.233Z,44.94
2018-07-06T08:55:28.413Z,45.23
2018-07-06T08:56:28.603Z,45.40
2018-07-06T08:57:28.796Z,45.50
2018-07-06T08:58:29.226Z,45.40
2018-07-06T08:59:29.161Z,45.32
2018-07-06T09:00:29.344Z,45.77
2018-07-06T09:01:29.527Z,45.60
2018-07-06T09:02:29.718Z,46.35
2018-07-06T09:03:29.914Z,46.64
2018-07-06T09:04:30.132Z,45.23
2018-07-06T09:05:30.281Z,45.77
2018-07-06T09:06:30.457Z,46.74
2018-07-06T09:07:30.706Z,47.13
2018-07-06T09:08:30.834Z,48.05
2018-07-06T09:09:31.045Z,47.30
2018-07-06T09:10:31.253Z,46.96
2018-07-06T09:11:31.386Z,46.96
2018-07-06T09:12:31.584Z,45.60
2018-07-06T09:13:31.812Z,46.81
2018-07-06T09:14:32.040Z,46.64
2018-07-06T09:15:32.253Z,46.74
2018-07-06T09:16:32.394Z,46.28
2018-07-06T09:17:32.567Z,46.30
2018-07-06T09:18:32.759Z,45.72
2018-07-06T09:19:33.111Z,45.91
2018-07-06T09:20:33.235Z,45.81
2018-07-06T09:21:33.530Z,45.06
2018-07-06T09:22:33.598Z,45.18
2018-07-06T09:23:33.698Z,44.09
2018-07-06T09:24:33.986Z,44.57
2018-07-06T09:25:34.067Z,44.48
2018-07-06T09:26:34.240Z,44.67
2018-07-06T09:27:34.438Z,44.20
2018-07-06T09:28:34.587Z,44.79
2018-07-06T09:29:34.774Z,44.40
2018-07-06T09:30:34.962Z,44.38
2018-07-06T09:31:35.144Z,44.67
2018-07-06T09:32:35.317Z,45.74
2018-07-06T09:33:35.490Z,45.64
2018-07-06T09:34:35.691Z,45.64
2018-07-06T09:35:35.855Z,45.94
2018-07-06T09:36:36.043Z,44.98
2018-07-06T09:37:36.205Z,44.42
2018-07-06T09:38:36.413Z,44.59
2018-07-06T09:39:36.602Z,45.04
2018-07-06T09:40:36.807Z,47.23
2018-07-06T09:41:36.995Z,48.30
2018-07-06T09:42:37.178Z,47.71
2018-07-06T09:43:37.375Z,47.25
2018-07-06T09:44:37.558Z,47.03
2018-07-06T09:45:37.742Z,48.32
2018-07-06T09:46:37.931Z,48.30
2018-07-06T09:47:38.112Z,48.57
2018-07-06T09:48:38.304Z,49.32
2018-07-06T09:49:38.493Z,48.95
2018-07-06T09:50:38.685Z,48.66
2018-07-06T09:51:38.864Z,48.78
2018-07-06T09:52:39.049Z,48.49
2018-07-06T09:53:39.251Z,48.20
2018-07-06T09:54:39.427Z,48.13
2018-07-06T09:55:39.615Z,48.22
2018-07-06T09:56:39.824Z,48.20
2018-07-06T09:57:39.991Z,48.20
2018-07-06T09:58:40.181Z,48.58
2018-07-06T09:59:40.346Z,48.58
2018-07-06T10:00:40.533Z,48.37
2018-07-06T10:01:40.726Z,49.05
2018-07-06T10:02:40.927Z,49.07
2018-07-06T10:03:41.100Z,48.97
2018-07-06T10:04:41.281Z,48.49
2018-07-06T10:05:41.507Z,48.39
2018-07-06T10:06:41.668Z,48.49
2018-07-06T10:07:41.827Z,48.47
2018-07-06T10:08:42.016Z,48.49
2018-07-06T10:09:42.207Z,48.20
2018-07-06T10:10:42.400Z,48.10
2018-07-06T10:11:42.581Z,48.57
2018-07-06T10:12:42.766Z,49.34
2018-07-06T10:13:42.960Z,49.41
2018-07-06T10:14:43.139Z,49.22
2018-07-06T10:15:43.336Z,49.51
2018-07-06T10:16:43.517Z,49.12
2018-07-06T10:17:43.709Z,48.73
2018-07-06T10:18:43.896Z,48.64
2018-07-06T10:19:44.101Z,49.39
2018-07-06T10:20:44.276Z,49.49
2018-07-06T10:21:44.460Z,49.77
2018-07-06T10:22:44.614Z,49.19
2018-07-06T10:23:44.843Z,48.22
2018-07-06T10:24:45.015Z,48.15
2018-07-06T10:25:45.223Z,47.11
2018-07-06T10:26:45.362Z,46.98
2018-07-06T10:27:45.537Z,46.91
2018-07-06T10:29:45.909Z,46.91
2018-07-06T10:30:46.100Z,46.62
2018-07-06T10:31:46.279Z,46.04
2018-07-06T10:32:46.463Z,45.75
2018-07-06T10:33:46.657Z,45.38
2018-07-06T10:34:46.808Z,45.94
2018-07-06T10:35:47.016Z,44.97
2018-07-06T10:36:47.188Z,46.50
2018-07-06T10:37:47.371Z,46.67
2018-07-06T10:38:47.569Z,46.89
2018-07-06T10:39:47.898Z,46.50
2018-07-06T10:40:47.940Z,45.82
2018-07-06T10:41:48.128Z,45.45
2018-07-06T10:42:48.317Z,45.41
2018-07-06T10:43:48.490Z,45.62
2018-07-06T10:44:48.674Z,46.41
2018-07-06T10:45:48.841Z,45.62
2018-07-06T10:46:49.023Z,45.24
2018-07-06T10:47:49.205Z,44.46
2018-07-06T10:48:49.382Z,44.00
2018-07-06T10:49:49.564Z,43.54
2018-07-06T10:50:49.757Z,42.56
2018-07-06T10:51:49.937Z,43.24
2018-07-06T10:52:50.397Z,43.68
2018-07-06T10:53:50.307Z,44.07
2018-07-06T10:54:50.491Z,43.98
2018-07-06T10:55:50.686Z,44.05
2018-07-06T10:56:50.862Z,44.92
2018-07-06T10:57:51.042Z,44.73
2018-07-06T10:58:51.221Z,44.83
2018-07-06T10:59:51.423Z,45.20
2018-07-06T11:00:51.606Z,45.20
2018-07-06T11:01:51.789Z,45.48
2018-07-06T11:02:51.976Z,46.55
2018-07-06T11:03:52.161Z,46.94
2018-07-06T11:04:52.413Z,46.84
2018-07-06T11:05:52.532Z,46.75
2018-07-06T11:06:52.841Z,47.33
2018-07-06T11:07:52.909Z,48.18
2018-07-06T11:08:53.102Z,48.18
2018-07-06T11:09:53.275Z,47.91
2018-07-06T11:10:53.453Z,47.03
2018-07-06T11:11:53.652Z,46.55
2018-07-06T11:12:53.842Z,47.30
2018-07-06T11:13:54.042Z,48.08
2018-07-06T11:14:54.210Z,47.79
2018-07-06T11:15:54.399Z,47.98
2018-07-06T11:16:54.570Z,48.00
2018-07-06T11:17:54.769Z,47.13
2018-07-06T11:18:54.950Z,46.77
2018-07-06T11:19:55.143Z,47.23
2018-07-06T11:20:55.333Z,47.52
2018-07-06T11:21:55.505Z,47.03
2018-07-06T11:22:55.743Z,47.13
2018-07-06T11:23:56.074Z,48.20
2018-07-06T11:24:56.004Z,48.10
2018-07-06T11:25:56.210Z,48.10
2018-07-06T11:26:56.396Z,48.22
2018-07-06T11:27:56.599Z,47.91
2018-07-06T11:28:56.783Z,48.42
2018-07-06T11:29:56.967Z,47.35
2018-07-06T11:30:57.138Z,47.25
2018-07-06T11:31:57.320Z,46.86
2018-07-06T11:32:57.497Z,47.06
2018-07-06T11:33:57.681Z,47.06
2018-07-06T11:34:57.884Z,47.06
2018-07-06T11:35:58.059Z,46.60
2018-07-06T11:36:58.247Z,47.06
2018-07-06T11:37:58.529Z,46.96
2018-07-06T11:38:58.627Z,46.60
2018-07-06T11:39:58.817Z,46.48
2018-07-06T11:40:58.992Z,46.67
2018-07-06T11:41:59.196Z,46.41
2018-07-06T11:42:59.385Z,46.79
2018-07-06T11:43:59.564Z,45.94
2018-07-06T11:44:59.827Z,45.55
2018-07-06T11:45:59.926Z,44.97
2018-07-06T11:47:00.104Z,45.43
2018-07-06T11:48:00.350Z,46.19
2018-07-06T11:49:00.473Z,45.82
2018-07-06T11:50:00.743Z,45.92
2018-07-06T11:51:00.830Z,46.69
2018-07-06T11:52:01.007Z,47.62
2018-07-06T11:53:01.181Z,47.98
2018-07-06T11:54:01.367Z,50.26
2018-07-06T11:55:01.541Z,50.94
2018-07-06T11:56:01.744Z,50.67
2018-07-06T11:57:01.893Z,49.37
2018-07-06T11:58:02.118Z,48.78
2018-07-06T11:59:02.270Z,48.59
2018-07-06T12:00:02.497Z,48.47
2018-07-06T12:01:02.649Z,48.76
2018-07-06T12:02:02.814Z,49.27
2018-07-06T12:03:02.991Z,48.49
2018-07-06T12:04:03.225Z,47.83
2018-07-06T12:05:03.579Z,47.72
2018-07-06T12:06:03.527Z,48.10
2018-07-06T12:07:03.711Z,48.00
2018-07-06T12:08:03.892Z,48.10
2018-07-06T12:09:04.080Z,47.55
2018-07-06T12:10:04.266Z,47.35
2018-07-06T12:11:04.446Z,48.66
2018-07-06T12:12:04.645Z,48.78
2018-07-06T12:13:04.798Z,48.39
2018-07-06T12:14:04.976Z,48.18
2018-07-06T12:15:05.156Z,47.91
2018-07-06T12:16:05.321Z,47.93
2018-07-06T12:17:05.532Z,48.39
2018-07-06T12:18:05.715Z,48.13
2018-07-06T12:19:05.907Z,47.25
2018-07-06T12:20:06.077Z,47.64
2018-07-06T12:21:06.357Z,47.16
2018-07-06T12:22:06.460Z,47.60
2018-07-06T12:23:06.640Z,48.49
2018-07-06T12:24:06.834Z,48.22
2018-07-06T12:25:07.015Z,48.03
2018-07-06T12:26:07.187Z,48.13
2018-07-06T12:27:07.377Z,48.03
2018-07-06T12:28:07.579Z,48.03
2018-07-06T12:29:07.841Z,48.20
2018-07-06T12:30:07.954Z,47.45
2018-07-06T12:31:08.133Z,47.25
2018-07-06T12:32:08.323Z,48.39
2018-07-06T12:33:08.496Z,48.20
2018-07-06T12:34:08.671Z,48.10
2018-07-06T12:35:08.853Z,48.03
2018-07-06T12:36:09.026Z,47.45
2018-07-06T12:37:09.214Z,47.06
2018-07-06T12:38:09.393Z,46.96
2018-07-06T12:39:09.573Z,46.69
2018-07-06T12:40:09.741Z,46.96
2018-07-06T12:41:09.935Z,46.96
2018-07-06T12:42:10.116Z,46.58
2018-07-06T12:43:10.297Z,46.96
2018-07-06T12:44:10.488Z,47.13
2018-07-06T12:45:10.688Z,47.13
2018-07-06T12:46:10.866Z,46.86
2018-07-06T12:47:11.085Z,46.77
2018-07-06T12:48:11.232Z,45.70
2018-07-06T12:49:11.425Z,45.99
2018-07-06T12:50:11.616Z,45.39
2018-07-06T12:51:11.811Z,45.00
2018-07-06T12:52:11.982Z,44.92
2018-07-06T12:53:12.175Z,44.92
2018-07-06T12:54:12.351Z,44.73
2018-07-06T12:55:12.538Z,44.54
2018-07-06T12:56:12.716Z,45.58
2018-07-06T12:57:12.876Z,45.48
2018-07-06T12:58:13.184Z,45.58
2018-07-06T12:59:13.288Z,45.29